sensor_id;sensor_type;location;lat;lon;timestamp;pressure;altitude;pressure_sealevel;temperature;humidity
16793;BME280;8513;42.662;23.350;2022-09-01T00:01:47;94727.66;;;18.69;68.51
16793;BME280;8513;42.662;23.350;2022-09-01T00:04:16;94727.66;;;18.69;68.05
16793;BME280;8513;42.662;23.350;2022-09-01T00:06:43;94733.84;;;18.36;68.91
16793;BME280;8513;42.662;23.350;2022-09-01T00:09:13;94721.94;;;18.59;67.98
16793;BME280;8513;42.662;23.350;2022-09-01T00:11:41;94713.56;;;18.55;68.38
16793;BME280;8513;42.662;23.350;2022-09-01T00:14:07;94724.38;;;18.67;67.29
16793;BME280;8513;42.662;23.350;2022-09-01T00:16:33;94722.53;;;18.74;66.42
16793;BME280;8513;42.662;23.350;2022-09-01T00:18:59;94714.94;;;18.78;65.75
16793;BME280;8513;42.662;23.350;2022-09-01T00:21:31;94710.84;;;18.75;65.72
16793;BME280;8513;42.662;23.350;2022-09-01T00:23:58;94716.81;;;18.77;65.74
16793;BME280;8513;42.662;23.350;2022-09-01T00:26:23;94708.81;;;18.77;65.85
16793;BME280;8513;42.662;23.350;2022-09-01T00:28:49;94709.44;;;18.79;66.07
16793;BME280;8513;42.662;23.350;2022-09-01T00:31:16;94712.72;;;18.75;67.05
16793;BME280;8513;42.662;23.350;2022-09-01T00:33:43;94722.13;;;18.77;67.72
16793;BME280;8513;42.662;23.350;2022-09-01T00:36:08;94715.38;;;18.75;68.65
16793;BME280;8513;42.662;23.350;2022-09-01T00:38:34;94721.50;;;18.75;69.09
16793;BME280;8513;42.662;23.350;2022-09-01T00:41:00;94729.66;;;18.73;69.58
16793;BME280;8513;42.662;23.350;2022-09-01T00:43:42;94725.03;;;18.56;70.38
16793;BME280;8513;42.662;23.350;2022-09-01T00:46:18;94720.50;;;18.56;70.73
16793;BME280;8513;42.662;23.350;2022-09-01T00:48:45;94735.66;;;18.56;70.65
16793;BME280;8513;42.662;23.350;2022-09-01T00:51:13;94724.47;;;18.07;72.99
16793;BME280;8513;42.662;23.350;2022-09-01T00:53:41;94734.25;;;18.46;71.40
16793;BME280;8513;42.662;23.350;2022-09-01T00:56:08;94738.31;;;18.69;70.07
16793;BME280;8513;42.662;23.350;2022-09-01T00:58:35;94733.41;;;18.66;69.88
16793;BME280;8513;42.662;23.350;2022-09-01T01:01:03;94732.38;;;18.60;70.18
16793;BME280;8513;42.662;23.350;2022-09-01T01:03:28;94735.47;;;18.44;70.37
16793;BME280;8513;42.662;23.350;2022-09-01T01:06:00;94738.97;;;18.44;70.99
16793;BME280;8513;42.662;23.350;2022-09-01T01:08:30;94732.44;;;18.20;71.78
16793;BME280;8513;42.662;23.350;2022-09-01T01:11:02;94735.72;;;18.29;71.80
16793;BME280;8513;42.662;23.350;2022-09-01T01:13:28;94740.00;;;18.30;71.20
16793;BME280;8513;42.662;23.350;2022-09-01T01:15:56;94744.72;;;18.08;72.12
16793;BME280;8513;42.662;23.350;2022-09-01T01:18:23;94740.41;;;17.87;73.35
16793;BME280;8513;42.662;23.350;2022-09-01T01:20:57;94733.44;;;18.19;71.74
16793;BME280;8513;42.662;23.350;2022-09-01T01:26:47;94737.13;;;18.12;72.49
16793;BME280;8513;42.662;23.350;2022-09-01T01:29:13;94731.81;;;18.12;72.15
16793;BME280;8513;42.662;23.350;2022-09-01T01:31:39;94738.78;;;18.13;72.23
16793;BME280;8513;42.662;23.350;2022-09-01T01:34:05;94736.34;;;18.18;71.76
16793;BME280;8513;42.662;23.350;2022-09-01T01:36:34;94735.91;;;18.27;71.59
16793;BME280;8513;42.662;23.350;2022-09-01T01:41:32;94734.69;;;18.17;71.88
16793;BME280;8513;42.662;23.350;2022-09-01T01:44:00;94729.97;;;18.25;71.36
16793;BME280;8513;42.662;23.350;2022-09-01T01:46:30;94739.16;;;18.23;70.47
16793;BME280;8513;42.662;23.350;2022-09-01T01:48:56;94746.97;;;18.24;69.61
16793;BME280;8513;42.662;23.350;2022-09-01T01:51:22;94752.66;;;18.41;68.25
16793;BME280;8513;42.662;23.350;2022-09-01T01:53:53;94750.03;;;18.28;68.31
16793;BME280;8513;42.662;23.350;2022-09-01T01:56:20;94753.31;;;18.23;68.20
16793;BME280;8513;42.662;23.350;2022-09-01T01:58:51;94756.19;;;18.15;67.72
16793;BME280;8513;42.662;23.350;2022-09-01T02:01:19;94762.75;;;18.13;67.29
16793;BME280;8513;42.662;23.350;2022-09-01T02:03:46;94766.41;;;17.98;66.94
16793;BME280;8513;42.662;23.350;2022-09-01T02:06:12;94760.88;;;17.87;67.00
16793;BME280;8513;42.662;23.350;2022-09-01T02:08:38;94762.50;;;17.81;67.16
16793;BME280;8513;42.662;23.350;2022-09-01T02:11:05;94762.50;;;17.88;66.90
16793;BME280;8513;42.662;23.350;2022-09-01T02:13:32;94761.69;;;17.87;66.58
16793;BME280;8513;42.662;23.350;2022-09-01T02:16:05;94769.03;;;17.85;66.96
16793;BME280;8513;42.662;23.350;2022-09-01T02:18:39;94761.47;;;17.82;66.96
16793;BME280;8513;42.662;23.350;2022-09-01T02:21:10;94769.44;;;17.82;67.09
16793;BME280;8513;42.662;23.350;2022-09-01T02:23:39;94757.59;;;17.84;67.19
16793;BME280;8513;42.662;23.350;2022-09-01T02:26:06;94768.22;;;17.84;67.14
16793;BME280;8513;42.662;23.350;2022-09-01T02:28:34;94768.63;;;17.88;66.92
16793;BME280;8513;42.662;23.350;2022-09-01T02:31:03;94765.94;;;17.68;67.77
16793;BME280;8513;42.662;23.350;2022-09-01T02:33:30;94764.88;;;17.56;68.63
16793;BME280;8513;42.662;23.350;2022-09-01T02:35:58;94760.38;;;17.63;68.44
16793;BME280;8513;42.662;23.350;2022-09-01T02:38:26;94756.91;;;17.62;68.22
16793;BME280;8513;42.662;23.350;2022-09-01T02:40:57;94765.50;;;17.51;68.72
16793;BME280;8513;42.662;23.350;2022-09-01T02:43:23;94752.59;;;17.55;68.77
16793;BME280;8513;42.662;23.350;2022-09-01T02:45:51;94748.72;;;17.64;68.38
16793;BME280;8513;42.662;23.350;2022-09-01T02:48:21;94750.78;;;17.69;68.04
16793;BME280;8513;42.662;23.350;2022-09-01T02:50:50;94746.28;;;17.69;67.90
16793;BME280;8513;42.662;23.350;2022-09-01T02:53:16;94748.53;;;17.66;68.31
16793;BME280;8513;42.662;23.350;2022-09-01T02:55:42;94744.84;;;17.67;68.14
16793;BME280;8513;42.662;23.350;2022-09-01T02:58:09;94735.66;;;17.62;68.30
16793;BME280;8513;42.662;23.350;2022-09-01T03:00:41;94740.50;;;17.39;69.09
16793;BME280;8513;42.662;23.350;2022-09-01T03:03:07;94737.06;;;17.52;68.62
16793;BME280;8513;42.662;23.350;2022-09-01T03:05:33;94731.94;;;17.50;68.48
16793;BME280;8513;42.662;23.350;2022-09-01T03:08:06;94736.66;;;17.55;68.29
16793;BME280;8513;42.662;23.350;2022-09-01T03:10:37;94741.97;;;17.48;68.34
16793;BME280;8513;42.662;23.350;2022-09-01T03:13:15;94748.91;;;17.49;68.34
16793;BME280;8513;42.662;23.350;2022-09-01T03:15:41;94742.78;;;17.49;68.46
16793;BME280;8513;42.662;23.350;2022-09-01T03:18:09;94747.28;;;17.48;68.62
16793;BME280;8513;42.662;23.350;2022-09-01T03:20:37;94730.94;;;17.51;68.63
16793;BME280;8513;42.662;23.350;2022-09-01T03:23:05;94732.38;;;17.54;68.38
16793;BME280;8513;42.662;23.350;2022-09-01T03:25:34;94735.00;;;17.47;68.70
16793;BME280;8513;42.662;23.350;2022-09-01T03:28:00;94743.78;;;17.41;69.24
16793;BME280;8513;42.662;23.350;2022-09-01T03:30:32;94750.13;;;17.53;68.65
16793;BME280;8513;42.662;23.350;2022-09-01T03:32:59;94749.13;;;17.54;68.87
16793;BME280;8513;42.662;23.350;2022-09-01T03:35:26;94745.66;;;17.54;68.53
16793;BME280;8513;42.662;23.350;2022-09-01T03:37:53;94752.19;;;17.51;68.55
16793;BME280;8513;42.662;23.350;2022-09-01T03:40:24;94753.78;;;17.39;68.77
16793;BME280;8513;42.662;23.350;2022-09-01T03:42:52;94746.88;;;17.51;68.39
16793;BME280;8513;42.662;23.350;2022-09-01T03:45:18;94750.13;;;17.53;67.55
16793;BME280;8513;42.662;23.350;2022-09-01T03:47:45;94751.16;;;17.52;67.62
16793;BME280;8513;42.662;23.350;2022-09-01T03:50:18;94751.38;;;17.64;67.78
16793;BME280;8513;42.662;23.350;2022-09-01T03:52:53;94752.22;;;17.64;67.84
16793;BME280;8513;42.662;23.350;2022-09-01T03:55:23;94754.00;;;17.37;68.59
16793;BME280;8513;42.662;23.350;2022-09-01T03:57:59;94748.88;;;17.36;68.93
16793;BME280;8513;42.662;23.350;2022-09-01T04:00:26;94737.66;;;17.47;68.66
16793;BME280;8513;42.662;23.350;2022-09-01T04:02:56;94751.31;;;17.31;69.51
16793;BME280;8513;42.662;23.350;2022-09-01T04:05:25;94754.56;;;17.26;69.67
16793;BME280;8513;42.662;23.350;2022-09-01T04:07:57;94755.56;;;17.18;70.16
16793;BME280;8513;42.662;23.350;2022-09-01T04:10:23;94754.72;;;17.18;70.71
16793;BME280;8513;42.662;23.350;2022-09-01T04:12:49;94755.59;;;17.32;69.95
16793;BME280;8513;42.662;23.350;2022-09-01T04:15:16;94753.00;;;17.58;69.25
16793;BME280;8513;42.662;23.350;2022-09-01T04:17:45;94748.91;;;17.56;68.87
16793;BME280;8513;42.662;23.350;2022-09-01T04:20:33;94753.84;;;17.59;68.99
16793;BME280;8513;42.662;23.350;2022-09-01T04:23:07;94756.28;;;17.60;68.96
16793;BME280;8513;42.662;23.350;2022-09-01T04:25:36;94753.22;;;17.57;69.76
16793;BME280;8513;42.662;23.350;2022-09-01T04:28:03;94747.91;;;17.57;70.07
16793;BME280;8513;42.662;23.350;2022-09-01T04:30:38;94748.25;;;17.34;71.34
16793;BME280;8513;42.662;23.350;2022-09-01T04:33:05;94736.22;;;17.38;71.60
16793;BME280;8513;42.662;23.350;2022-09-01T04:35:31;94752.56;;;17.35;71.85
16793;BME280;8513;42.662;23.350;2022-09-01T04:38:01;94739.91;;;17.50;71.21
16793;BME280;8513;42.662;23.350;2022-09-01T04:40:26;94750.34;;;17.58;71.00
16793;BME280;8513;42.662;23.350;2022-09-01T04:42:52;94751.13;;;17.39;72.25
16793;BME280;8513;42.662;23.350;2022-09-01T04:45:18;94750.75;;;17.49;72.24
16793;BME280;8513;42.662;23.350;2022-09-01T04:47:49;94750.16;;;17.67;71.14
16793;BME280;8513;42.662;23.350;2022-09-01T04:50:15;94749.34;;;17.59;71.75
16793;BME280;8513;42.662;23.350;2022-09-01T04:52:45;94755.09;;;17.70;71.39
16793;BME280;8513;42.662;23.350;2022-09-01T04:55:12;94749.59;;;17.84;71.04
16793;BME280;8513;42.662;23.350;2022-09-01T04:57:45;94750.66;;;17.97;70.22
16793;BME280;8513;42.662;23.350;2022-09-01T05:00:17;94744.31;;;18.04;69.57
16793;BME280;8513;42.662;23.350;2022-09-01T05:02:56;94743.69;;;18.09;69.36
16793;BME280;8513;42.662;23.350;2022-09-01T05:05:27;94744.69;;;18.28;68.37
16793;BME280;8513;42.662;23.350;2022-09-01T05:07:53;94751.25;;;18.32;67.85
16793;BME280;8513;42.662;23.350;2022-09-01T05:10:20;94746.13;;;18.37;66.55
16793;BME280;8513;42.662;23.350;2022-09-01T05:12:47;94746.97;;;18.44;65.79
16793;BME280;8513;42.662;23.350;2022-09-01T05:15:14;94750.22;;;18.40;65.23
16793;BME280;8513;42.662;23.350;2022-09-01T05:17:41;94746.94;;;18.38;64.99
16793;BME280;8513;42.662;23.350;2022-09-01T05:20:08;94745.94;;;18.32;65.52
16793;BME280;8513;42.662;23.350;2022-09-01T05:22:34;94746.34;;;18.29;66.20
16793;BME280;8513;42.662;23.350;2022-09-01T05:25:02;94743.25;;;18.59;65.73
16793;BME280;8513;42.662;23.350;2022-09-01T05:27:41;94745.28;;;18.57;66.89
16793;BME280;8513;42.662;23.350;2022-09-01T05:30:07;94744.44;;;18.69;66.56
16793;BME280;8513;42.662;23.350;2022-09-01T05:32:34;94743.69;;;18.42;67.07
16793;BME280;8513;42.662;23.350;2022-09-01T05:35:02;94732.59;;;18.52;66.12
16793;BME280;8513;42.662;23.350;2022-09-01T05:37:34;94743.84;;;18.61;65.87
16793;BME280;8513;42.662;23.350;2022-09-01T05:40:05;94738.72;;;18.66;66.00
16793;BME280;8513;42.662;23.350;2022-09-01T05:42:31;94728.66;;;18.68;66.02
16793;BME280;8513;42.662;23.350;2022-09-01T05:44:59;94738.31;;;18.82;65.23
16793;BME280;8513;42.662;23.350;2022-09-01T05:47:26;94741.41;;;18.52;66.18
16793;BME280;8513;42.662;23.350;2022-09-01T05:49:53;94743.25;;;18.59;66.52
16793;BME280;8513;42.662;23.350;2022-09-01T05:52:22;94742.81;;;18.62;66.50
16793;BME280;8513;42.662;23.350;2022-09-01T05:54:50;94740.13;;;18.82;66.13
16793;BME280;8513;42.662;23.350;2022-09-01T05:57:17;94749.34;;;18.86;66.32
16793;BME280;8513;42.662;23.350;2022-09-01T05:59:44;94749.34;;;18.92;66.30
16793;BME280;8513;42.662;23.350;2022-09-01T06:02:11;94749.72;;;18.89;66.17
16793;BME280;8513;42.662;23.350;2022-09-01T06:04:37;94747.50;;;18.93;66.41
16793;BME280;8513;42.662;23.350;2022-09-01T06:07:11;94738.91;;;18.71;67.33
16793;BME280;8513;42.662;23.350;2022-09-01T06:09:43;94739.31;;;18.88;66.92
16793;BME280;8513;42.662;23.350;2022-09-01T06:12:10;94736.66;;;18.88;66.96
16793;BME280;8513;42.662;23.350;2022-09-01T06:14:42;94737.84;;;18.99;66.39
16793;BME280;8513;42.662;23.350;2022-09-01T06:17:08;94739.06;;;18.89;66.99
16793;BME280;8513;42.662;23.350;2022-09-01T06:19:36;94735.84;;;18.81;67.08
16793;BME280;8513;42.662;23.350;2022-09-01T06:22:02;94734.25;;;18.33;69.25
16793;BME280;8513;42.662;23.350;2022-09-01T06:24:28;94734.47;;;18.45;68.85
16793;BME280;8513;42.662;23.350;2022-09-01T06:26:53;94733.41;;;18.59;68.38
16793;BME280;8513;42.662;23.350;2022-09-01T06:29:19;94724.41;;;18.47;69.27
16793;BME280;8513;42.662;23.350;2022-09-01T06:31:45;94735.03;;;18.60;69.03
16793;BME280;8513;42.662;23.350;2022-09-01T06:34:17;94735.03;;;18.67;68.62
16793;BME280;8513;42.662;23.350;2022-09-01T06:36:44;94731.16;;;18.56;69.30
16793;BME280;8513;42.662;23.350;2022-09-01T06:39:10;94730.13;;;18.77;68.59
16793;BME280;8513;42.662;23.350;2022-09-01T06:41:45;94723.13;;;18.83;68.26
16793;BME280;8513;42.662;23.350;2022-09-01T06:44:12;94721.84;;;18.99;67.93
16793;BME280;8513;42.662;23.350;2022-09-01T06:46:38;94725.41;;;19.24;67.13
16793;BME280;8513;42.662;23.350;2022-09-01T06:49:04;94721.06;;;19.30;66.71
16793;BME280;8513;42.662;23.350;2022-09-01T06:51:30;94723.28;;;19.39;66.44
16793;BME280;8513;42.662;23.350;2022-09-01T06:53:56;94723.84;;;19.16;67.13
16793;BME280;8513;42.662;23.350;2022-09-01T06:56:25;94732.75;;;18.84;68.38
16793;BME280;8513;42.662;23.350;2022-09-01T06:58:54;94722.38;;;19.21;67.33
16793;BME280;8513;42.662;23.350;2022-09-01T07:01:20;94729.50;;;19.33;66.92
16793;BME280;8513;42.662;23.350;2022-09-01T07:03:50;94727.50;;;19.15;66.99
16793;BME280;8513;42.662;23.350;2022-09-01T07:06:17;94736.50;;;19.21;67.08
16793;BME280;8513;42.662;23.350;2022-09-01T07:08:43;94725.69;;;19.09;67.71
16793;BME280;8513;42.662;23.350;2022-09-01T07:11:22;94736.19;;;19.43;66.60
16793;BME280;8513;42.662;23.350;2022-09-01T07:13:51;94730.59;;;19.57;66.04
16793;BME280;8513;42.662;23.350;2022-09-01T07:16:20;94729.41;;;19.47;65.90
16793;BME280;8513;42.662;23.350;2022-09-01T07:18:48;94734.38;;;19.36;66.34
16793;BME280;8513;42.662;23.350;2022-09-01T07:21:15;94722.84;;;19.43;66.64
16793;BME280;8513;42.662;23.350;2022-09-01T07:23:40;94733.75;;;19.41;66.72
16793;BME280;8513;42.662;23.350;2022-09-01T07:26:08;94726.63;;;19.28;67.12
16793;BME280;8513;42.662;23.350;2022-09-01T07:28:35;94723.53;;;19.38;66.88
16793;BME280;8513;42.662;23.350;2022-09-01T07:31:00;94727.50;;;19.54;65.88
16793;BME280;8513;42.662;23.350;2022-09-01T07:33:31;94719.81;;;19.77;65.46
16793;BME280;8513;42.662;23.350;2022-09-01T07:35:57;94728.38;;;19.86;65.04
16793;BME280;8513;42.662;23.350;2022-09-01T07:38:24;94728.75;;;19.90;65.50
16793;BME280;8513;42.662;23.350;2022-09-01T07:40:50;94715.03;;;20.11;64.37
16793;BME280;8513;42.662;23.350;2022-09-01T07:43:23;94717.06;;;20.16;64.21
16793;BME280;8513;42.662;23.350;2022-09-01T07:45:52;94716.28;;;20.34;63.78
16793;BME280;8513;42.662;23.350;2022-09-01T07:48:21;94720.31;;;20.43;62.97
16793;BME280;8513;42.662;23.350;2022-09-01T07:50:50;94716.94;;;20.54;62.76
16793;BME280;8513;42.662;23.350;2022-09-01T07:53:19;94711.78;;;20.53;62.05
16793;BME280;8513;42.662;23.350;2022-09-01T07:55:47;94710.50;;;20.62;61.85
16793;BME280;8513;42.662;23.350;2022-09-01T07:58:15;94714.06;;;20.74;61.61
16793;BME280;8513;42.662;23.350;2022-09-01T08:00:41;94715.16;;;20.85;61.36
16793;BME280;8513;42.662;23.350;2022-09-01T08:03:12;94721.06;;;20.93;61.64
16793;BME280;8513;42.662;23.350;2022-09-01T08:05:38;94722.47;;;20.96;61.82
16793;BME280;8513;42.662;23.350;2022-09-01T08:08:04;94723.88;;;21.17;60.91
16793;BME280;8513;42.662;23.350;2022-09-01T08:10:29;94720.09;;;21.06;60.33
16793;BME280;8513;42.662;23.350;2022-09-01T08:12:55;94722.00;;;21.18;59.95
16793;BME280;8513;42.662;23.350;2022-09-01T08:15:21;94723.31;;;21.27;60.19
16793;BME280;8513;42.662;23.350;2022-09-01T08:17:47;94707.84;;;21.47;60.10
16793;BME280;8513;42.662;23.350;2022-09-01T08:20:12;94702.41;;;21.54;59.93
16793;BME280;8513;42.662;23.350;2022-09-01T08:22:38;94710.56;;;21.59;59.81
16793;BME280;8513;42.662;23.350;2022-09-01T08:25:06;94712.56;;;21.64;59.14
16793;BME280;8513;42.662;23.350;2022-09-01T08:27:33;94717.91;;;21.64;59.02
16793;BME280;8513;42.662;23.350;2022-09-01T08:30:02;94706.88;;;21.60;58.58
16793;BME280;8513;42.662;23.350;2022-09-01T08:32:29;94708.13;;;21.57;58.68
16793;BME280;8513;42.662;23.350;2022-09-01T08:34:55;94712.56;;;21.64;58.63
16793;BME280;8513;42.662;23.350;2022-09-01T08:37:21;94709.97;;;21.87;57.73
16793;BME280;8513;42.662;23.350;2022-09-01T08:39:47;94705.75;;;21.91;57.33
16793;BME280;8513;42.662;23.350;2022-09-01T08:47:29;94696.16;;;22.14;55.62
16793;BME280;8513;42.662;23.350;2022-09-01T08:49:55;94700.59;;;22.20;55.37
16793;BME280;8513;42.662;23.350;2022-09-01T08:52:32;94692.34;;;22.33;54.69
16793;BME280;8513;42.662;23.350;2022-09-01T08:55:08;94693.63;;;22.31;54.77
16793;BME280;8513;42.662;23.350;2022-09-01T08:57:39;94687.22;;;22.55;54.63
16793;BME280;8513;42.662;23.350;2022-09-01T09:00:07;94680.56;;;22.58;55.02
16793;BME280;8513;42.662;23.350;2022-09-01T09:18:57;94662.94;;;23.54;51.93
16793;BME280;8513;42.662;23.350;2022-09-01T09:21:32;94660.69;;;23.63;51.34
16793;BME280;8513;42.662;23.350;2022-09-01T09:24:08;94651.69;;;23.86;51.29
16793;BME280;8513;42.662;23.350;2022-09-01T09:26:34;94659.44;;;23.83;50.62
16793;BME280;8513;42.662;23.350;2022-09-01T09:28:59;94665.38;;;23.85;50.73
16793;BME280;8513;42.662;23.350;2022-09-01T09:31:34;94656.19;;;24.14;49.92
16793;BME280;8513;42.662;23.350;2022-09-01T09:34:01;94646.66;;;24.24;48.89
16793;BME280;8513;42.662;23.350;2022-09-01T09:36:33;94654.88;;;24.34;48.87
16793;BME280;8513;42.662;23.350;2022-09-01T09:39:11;94652.91;;;24.63;48.78
16793;BME280;8513;42.662;23.350;2022-09-01T09:41:38;94651.66;;;24.71;47.42
16793;BME280;8513;42.662;23.350;2022-09-01T09:46:44;94639.03;;;24.93;46.69
16793;BME280;8513;42.662;23.350;2022-09-01T09:49:21;94649.28;;;24.96;46.61
16793;BME280;8513;42.662;23.350;2022-09-01T09:54:28;94643.38;;;24.77;47.02
16793;BME280;8513;42.662;23.350;2022-09-01T09:59:35;94647.66;;;24.95;46.06
16793;BME280;8513;42.662;23.350;2022-09-01T10:02:24;94636.13;;;24.39;46.38
16793;BME280;8513;42.662;23.350;2022-09-01T10:04:51;94639.09;;;24.04;47.12
16793;BME280;8513;42.662;23.350;2022-09-01T10:07:35;94641.19;;;24.35;46.28
16793;BME280;8513;42.662;23.350;2022-09-01T10:12:56;94637.34;;;24.87;46.22
16793;BME280;8513;42.662;23.350;2022-09-01T10:15:25;94630.13;;;25.15;45.92
16793;BME280;8513;42.662;23.350;2022-09-01T10:17:54;94625.50;;;24.88;44.82
16793;BME280;8513;42.662;23.350;2022-09-01T10:20:25;94627.09;;;24.62;45.46
16793;BME280;8513;42.662;23.350;2022-09-01T10:22:51;94626.47;;;24.38;45.52
16793;BME280;8513;42.662;23.350;2022-09-01T10:25:20;94625.00;;;24.30;46.33
16793;BME280;8513;42.662;23.350;2022-09-01T10:27:57;94620.94;;;24.28;45.54
16793;BME280;8513;42.662;23.350;2022-09-01T10:30:27;94620.34;;;24.26;46.31
16793;BME280;8513;42.662;23.350;2022-09-01T10:32:58;94623.34;;;24.29;46.16
16793;BME280;8513;42.662;23.350;2022-09-01T10:35:30;94611.50;;;24.25;46.30
16793;BME280;8513;42.662;23.350;2022-09-01T10:37:59;94617.59;;;24.20;46.20
16793;BME280;8513;42.662;23.350;2022-09-01T10:40:34;94619.72;;;24.18;46.51
16793;BME280;8513;42.662;23.350;2022-09-01T10:45:49;94617.25;;;24.34;46.39
16793;BME280;8513;42.662;23.350;2022-09-01T10:48:32;94614.34;;;24.35;46.46
16793;BME280;8513;42.662;23.350;2022-09-01T10:53:45;94617.50;;;24.71;45.40
16793;BME280;8513;42.662;23.350;2022-09-01T11:04:08;94610.38;;;25.53;43.41
16793;BME280;8513;42.662;23.350;2022-09-01T11:09:07;94595.44;;;26.00;41.47
16793;BME280;8513;42.662;23.350;2022-09-01T11:11:45;94591.59;;;26.28;41.99
16793;BME280;8513;42.662;23.350;2022-09-01T11:14:32;94585.44;;;26.37;41.47
16793;BME280;8513;42.662;23.350;2022-09-01T11:17:24;94587.09;;;26.49;40.64
16793;BME280;8513;42.662;23.350;2022-09-01T11:19:54;94597.28;;;26.79;40.01
16793;BME280;8513;42.662;23.350;2022-09-01T11:30:56;94586.53;;;26.89;40.17
16793;BME280;8513;42.662;23.350;2022-09-01T11:36:04;94575.91;;;27.51;38.60
16793;BME280;8513;42.662;23.350;2022-09-01T11:38:41;94571.31;;;27.77;38.03
16793;BME280;8513;42.662;23.350;2022-09-01T11:41:22;94564.84;;;27.88;37.13
16793;BME280;8513;42.662;23.350;2022-09-01T11:43:51;94554.56;;;27.75;36.58
16793;BME280;8513;42.662;23.350;2022-09-01T11:46:24;94545.94;;;27.78;37.08
16793;BME280;8513;42.662;23.350;2022-09-01T11:48:51;94551.34;;;28.03;36.96
16793;BME280;8513;42.662;23.350;2022-09-01T11:51:17;94541.56;;;28.28;36.16
16793;BME280;8513;42.662;23.350;2022-09-01T11:53:43;94544.72;;;28.66;36.09
16793;BME280;8513;42.662;23.350;2022-09-01T11:56:18;94543.03;;;28.80;35.75
16793;BME280;8513;42.662;23.350;2022-09-01T11:58:44;94535.41;;;28.92;36.37
16793;BME280;8513;42.662;23.350;2022-09-01T12:01:17;94537.88;;;28.84;36.46
16793;BME280;8513;42.662;23.350;2022-09-01T12:03:45;94530.47;;;29.10;36.37
16793;BME280;8513;42.662;23.350;2022-09-01T12:06:18;94530.09;;;29.61;35.29
16793;BME280;8513;42.662;23.350;2022-09-01T12:08:52;94530.69;;;29.58;35.04
16793;BME280;8513;42.662;23.350;2022-09-01T12:11:25;94528.72;;;29.63;35.47
16793;BME280;8513;42.662;23.350;2022-09-01T12:16:26;94526.69;;;30.14;34.98
16793;BME280;8513;42.662;23.350;2022-09-01T12:18:54;94532.28;;;30.27;35.17
16793;BME280;8513;42.662;23.350;2022-09-01T12:21:24;94530.88;;;30.30;35.30
16793;BME280;8513;42.662;23.350;2022-09-01T12:23:51;94521.72;;;29.62;35.92
16793;BME280;8513;42.662;23.350;2022-09-01T12:26:19;94532.91;;;29.45;36.22
16793;BME280;8513;42.662;23.350;2022-09-01T12:28:47;94525.16;;;29.34;36.55
16793;BME280;8513;42.662;23.350;2022-09-01T12:31:18;94519.66;;;29.05;36.90
16793;BME280;8513;42.662;23.350;2022-09-01T12:33:44;94524.88;;;27.90;39.46
16793;BME280;8513;42.662;23.350;2022-09-01T12:36:32;94524.31;;;28.03;39.46
16793;BME280;8513;42.662;23.350;2022-09-01T12:39:21;94517.84;;;28.04;39.63
16793;BME280;8513;42.662;23.350;2022-09-01T12:47:12;94517.75;;;28.30;38.47
16793;BME280;8513;42.662;23.350;2022-09-01T12:49:43;94514.25;;;28.29;38.64
16793;BME280;8513;42.662;23.350;2022-09-01T12:54:48;94515.13;;;28.09;39.13
16793;BME280;8513;42.662;23.350;2022-09-01T12:57:29;94521.06;;;28.01;39.47
16793;BME280;8513;42.662;23.350;2022-09-01T13:02:49;94511.81;;;28.33;38.89
16793;BME280;8513;42.662;23.350;2022-09-01T13:08:00;94511.25;;;29.45;36.46
16793;BME280;8513;42.662;23.350;2022-09-01T13:10:31;94510.03;;;29.96;35.77
16793;BME280;8513;42.662;23.350;2022-09-01T13:12:58;94506.28;;;30.21;34.45
16793;BME280;8513;42.662;23.350;2022-09-01T13:15:25;94503.41;;;30.37;34.27
16793;BME280;8513;42.662;23.350;2022-09-01T13:17:51;94494.53;;;30.31;34.21
16793;BME280;8513;42.662;23.350;2022-09-01T13:20:17;94496.13;;;30.08;34.95
16793;BME280;8513;42.662;23.350;2022-09-01T13:22:42;94490.53;;;29.70;35.69
16793;BME280;8513;42.662;23.350;2022-09-01T13:25:10;94481.47;;;29.45;35.70
16793;BME280;8513;42.662;23.350;2022-09-01T13:27:38;94488.63;;;29.31;36.36
16793;BME280;8513;42.662;23.350;2022-09-01T13:30:05;94497.69;;;29.16;36.74
16793;BME280;8513;42.662;23.350;2022-09-01T13:32:31;94500.13;;;29.13;37.06
16793;BME280;8513;42.662;23.350;2022-09-01T13:34:56;94498.31;;;28.93;37.62
16793;BME280;8513;42.662;23.350;2022-09-01T13:37:22;94501.78;;;29.03;37.55
16793;BME280;8513;42.662;23.350;2022-09-01T13:39:48;94502.16;;;30.29;35.11
16793;BME280;8513;42.662;23.350;2022-09-01T13:42:15;94500.09;;;33.34;30.11
16793;BME280;8513;42.662;23.350;2022-09-01T13:44:40;94502.66;;;34.30;27.99
16793;BME280;8513;42.662;23.350;2022-09-01T13:47:06;94512.13;;;34.23;28.60
16793;BME280;8513;42.662;23.350;2022-09-01T13:49:31;94512.25;;;34.18;28.92
16793;BME280;8513;42.662;23.350;2022-09-01T13:51:57;94506.34;;;34.02;29.34
16793;BME280;8513;42.662;23.350;2022-09-01T13:54:22;94518.03;;;32.99;30.56
16793;BME280;8513;42.662;23.350;2022-09-01T13:56:48;94516.91;;;33.00;31.36
16793;BME280;8513;42.662;23.350;2022-09-01T13:59:13;94511.88;;;33.89;28.61
16793;BME280;8513;42.662;23.350;2022-09-01T14:01:39;94507.31;;;35.09;26.54
16793;BME280;8513;42.662;23.350;2022-09-01T14:04:07;94504.84;;;33.65;27.64
16793;BME280;8513;42.662;23.350;2022-09-01T14:06:39;94501.88;;;31.16;31.75
16793;BME280;8513;42.662;23.350;2022-09-01T14:09:05;94507.94;;;29.88;34.33
16793;BME280;8513;42.662;23.350;2022-09-01T14:11:30;94511.56;;;29.44;34.92
16793;BME280;8513;42.662;23.350;2022-09-01T14:13:56;94495.22;;;29.20;36.27
16793;BME280;8513;42.662;23.350;2022-09-01T14:16:22;94501.63;;;28.85;37.57
16793;BME280;8513;42.662;23.350;2022-09-01T14:18:47;94507.16;;;28.59;39.02
16793;BME280;8513;42.662;23.350;2022-09-01T14:21:14;94503.13;;;28.41;40.79
16793;BME280;8513;42.662;23.350;2022-09-01T14:23:41;94501.06;;;28.18;42.32
16793;BME280;8513;42.662;23.350;2022-09-01T14:26:09;94502.28;;;28.61;41.88
16793;BME280;8513;42.662;23.350;2022-09-01T14:28:36;94499.16;;;29.72;39.30
16793;BME280;8513;42.662;23.350;2022-09-01T14:31:07;94498.59;;;29.75;39.18